sensor_id;sensor_type;location;lat;lon;timestamp;P1;durP1;ratioP1;P2;durP2;ratioP2
67585;SDS011;55785;47.946;20.540;2023-08-24T00:01:21;9.23;;;6.32;;
67585;SDS011;55785;47.946;20.540;2023-08-24T00:03:46;11.00;;;6.07;;
67585;SDS011;55785;47.946;20.540;2023-08-24T00:06:12;9.32;;;5.68;;
67585;SDS011;55785;47.946;20.540;2023-08-24T00:08:37;12.70;;;6.28;;
67585;SDS011;55785;47.946;20.540;2023-08-24T00:11:03;13.07;;;7.20;;
67585;SDS011;55785;47.946;20.540;2023-08-24T00:13:28;13.80;;;6.30;;
67585;SDS011;55785;47.946;20.540;2023-08-24T00:15:54;10.07;;;5.90;;
67585;SDS011;55785;47.946;20.540;2023-08-24T00:18:19;10.55;;;6.40;;
67585;SDS011;55785;47.946;20.540;2023-08-24T00:20:45;10.63;;;6.30;;
67585;SDS011;55785;47.946;20.540;2023-08-24T00:23:10;14.55;;;6.43;;
67585;SDS011;55785;47.946;20.540;2023-08-24T00:25:35;13.30;;;7.13;;
67585;SDS011;55785;47.946;20.540;2023-08-24T00:28:01;8.73;;;6.60;;
67585;SDS011;55785;47.946;20.540;2023-08-24T00:30:26;11.25;;;5.90;;
67585;SDS011;55785;47.946;20.540;2023-08-24T00:32:51;6.65;;;5.65;;
67585;SDS011;55785;47.946;20.540;2023-08-24T00:35:17;8.93;;;6.10;;
67585;SDS011;55785;47.946;20.540;2023-08-24T00:37:42;8.75;;;6.00;;
67585;SDS011;55785;47.946;20.540;2023-08-24T00:40:08;10.00;;;6.55;;
67585;SDS011;55785;47.946;20.540;2023-08-24T00:42:36;7.97;;;6.43;;
67585;SDS011;55785;47.946;20.540;2023-08-24T00:45:02;9.25;;;6.40;;
67585;SDS011;55785;47.946;20.540;2023-08-24T00:47:28;10.15;;;5.78;;
67585;SDS011;55785;47.946;20.540;2023-08-24T00:49:53;8.32;;;6.10;;
67585;SDS011;55785;47.946;20.540;2023-08-24T00:52:19;8.45;;;5.88;;
67585;SDS011;55785;47.946;20.540;2023-08-24T00:54:44;9.82;;;6.30;;
67585;SDS011;55785;47.946;20.540;2023-08-24T00:57:09;8.30;;;6.05;;
67585;SDS011;55785;47.946;20.540;2023-08-24T00:59:35;9.60;;;6.20;;
67585;SDS011;55785;47.946;20.540;2023-08-24T01:02:00;9.32;;;6.05;;
67585;SDS011;55785;47.946;20.540;2023-08-24T01:04:26;11.77;;;6.32;;
67585;SDS011;55785;47.946;20.540;2023-08-24T01:06:52;8.82;;;5.80;;
67585;SDS011;55785;47.946;20.540;2023-08-24T01:09:17;8.85;;;6.13;;
67585;SDS011;55785;47.946;20.540;2023-08-24T01:11:49;8.18;;;6.22;;
67585;SDS011;55785;47.946;20.540;2023-08-24T01:16:46;9.75;;;6.07;;
67585;SDS011;55785;47.946;20.540;2023-08-24T01:19:25;9.52;;;6.43;;
67585;SDS011;55785;47.946;20.540;2023-08-24T01:21:54;9.45;;;6.72;;
67585;SDS011;55785;47.946;20.540;2023-08-24T01:24:42;9.65;;;6.88;;
67585;SDS011;55785;47.946;20.540;2023-08-24T01:27:05;9.65;;;5.90;;
67585;SDS011;55785;47.946;20.540;2023-08-24T01:29:31;12.23;;;5.78;;
67585;SDS011;55785;47.946;20.540;2023-08-24T01:31:57;8.93;;;5.50;;
67585;SDS011;55785;47.946;20.540;2023-08-24T01:34:22;9.32;;;6.40;;
67585;SDS011;55785;47.946;20.540;2023-08-24T01:36:47;10.80;;;5.97;;
67585;SDS011;55785;47.946;20.540;2023-08-24T01:41:37;9.80;;;7.00;;
67585;SDS011;55785;47.946;20.540;2023-08-24T01:44:03;9.82;;;7.22;;
67585;SDS011;55785;47.946;20.540;2023-08-24T01:46:29;12.15;;;8.52;;
67585;SDS011;55785;47.946;20.540;2023-08-24T01:48:56;13.27;;;8.63;;
67585;SDS011;55785;47.946;20.540;2023-08-24T01:51:21;12.05;;;8.35;;
67585;SDS011;55785;47.946;20.540;2023-08-24T01:53:47;12.45;;;8.35;;
67585;SDS011;55785;47.946;20.540;2023-08-24T01:56:13;14.02;;;8.75;;
67585;SDS011;55785;47.946;20.540;2023-08-24T01:58:38;14.40;;;7.82;;
67585;SDS011;55785;47.946;20.540;2023-08-24T02:01:12;13.05;;;8.43;;
67585;SDS011;55785;47.946;20.540;2023-08-24T02:03:38;13.20;;;8.85;;
67585;SDS011;55785;47.946;20.540;2023-08-24T02:06:03;11.68;;;8.85;;
67585;SDS011;55785;47.946;20.540;2023-08-24T02:08:28;16.90;;;9.18;;
67585;SDS011;55785;47.946;20.540;2023-08-24T02:10:53;12.15;;;8.07;;
67585;SDS011;55785;47.946;20.540;2023-08-24T02:13:19;12.48;;;8.68;;
67585;SDS011;55785;47.946;20.540;2023-08-24T02:15:44;12.50;;;8.35;;
67585;SDS011;55785;47.946;20.540;2023-08-24T02:18:09;13.95;;;8.00;;
67585;SDS011;55785;47.946;20.540;2023-08-24T02:20:35;13.45;;;9.13;;
67585;SDS011;55785;47.946;20.540;2023-08-24T02:23:00;14.60;;;9.60;;
67585;SDS011;55785;47.946;20.540;2023-08-24T02:25:25;12.35;;;9.13;;
67585;SDS011;55785;47.946;20.540;2023-08-24T02:27:51;14.45;;;8.48;;
67585;SDS011;55785;47.946;20.540;2023-08-24T02:30:16;13.43;;;8.35;;
67585;SDS011;55785;47.946;20.540;2023-08-24T02:32:41;13.43;;;8.90;;
67585;SDS011;55785;47.946;20.540;2023-08-24T02:35:06;13.45;;;8.63;;
67585;SDS011;55785;47.946;20.540;2023-08-24T02:37:32;11.35;;;8.65;;
67585;SDS011;55785;47.946;20.540;2023-08-24T02:39:57;15.30;;;9.80;;
67585;SDS011;55785;47.946;20.540;2023-08-24T02:42:22;14.13;;;9.85;;
67585;SDS011;55785;47.946;20.540;2023-08-24T02:44:47;13.32;;;9.30;;
67585;SDS011;55785;47.946;20.540;2023-08-24T02:47:12;15.00;;;9.95;;
67585;SDS011;55785;47.946;20.540;2023-08-24T02:49:38;13.88;;;9.95;;
67585;SDS011;55785;47.946;20.540;2023-08-24T02:52:03;14.60;;;9.90;;
67585;SDS011;55785;47.946;20.540;2023-08-24T02:54:28;19.30;;;9.57;;
67585;SDS011;55785;47.946;20.540;2023-08-24T02:56:53;13.52;;;9.60;;
67585;SDS011;55785;47.946;20.540;2023-08-24T02:59:19;11.48;;;8.82;;
67585;SDS011;55785;47.946;20.540;2023-08-24T03:01:44;14.18;;;9.35;;
67585;SDS011;55785;47.946;20.540;2023-08-24T03:04:09;12.77;;;8.40;;
67585;SDS011;55785;47.946;20.540;2023-08-24T03:06:34;13.25;;;8.73;;
67585;SDS011;55785;47.946;20.540;2023-08-24T03:09:00;17.33;;;8.90;;
67585;SDS011;55785;47.946;20.540;2023-08-24T03:11:26;14.70;;;9.55;;
67585;SDS011;55785;47.946;20.540;2023-08-24T03:13:51;15.50;;;9.75;;
67585;SDS011;55785;47.946;20.540;2023-08-24T03:16:16;15.00;;;10.70;;
67585;SDS011;55785;47.946;20.540;2023-08-24T03:18:41;14.00;;;9.35;;
67585;SDS011;55785;47.946;20.540;2023-08-24T03:21:06;11.43;;;8.85;;
67585;SDS011;55785;47.946;20.540;2023-08-24T03:23:32;13.05;;;9.23;;
67585;SDS011;55785;47.946;20.540;2023-08-24T03:25:57;14.52;;;9.15;;
67585;SDS011;55785;47.946;20.540;2023-08-24T03:28:22;12.98;;;8.70;;
67585;SDS011;55785;47.946;20.540;2023-08-24T03:30:48;13.85;;;9.63;;
67585;SDS011;55785;47.946;20.540;2023-08-24T03:33:14;12.18;;;8.75;;
67585;SDS011;55785;47.946;20.540;2023-08-24T03:35:39;16.25;;;9.82;;
67585;SDS011;55785;47.946;20.540;2023-08-24T03:38:04;13.20;;;8.52;;
67585;SDS011;55785;47.946;20.540;2023-08-24T03:40:29;15.52;;;8.80;;
67585;SDS011;55785;47.946;20.540;2023-08-24T03:42:55;10.35;;;8.10;;
67585;SDS011;55785;47.946;20.540;2023-08-24T03:45:20;13.95;;;8.38;;
67585;SDS011;55785;47.946;20.540;2023-08-24T03:47:45;13.43;;;8.27;;
67585;SDS011;55785;47.946;20.540;2023-08-24T03:50:11;11.52;;;8.70;;
67585;SDS011;55785;47.946;20.540;2023-08-24T03:52:36;16.65;;;8.70;;
67585;SDS011;55785;47.946;20.540;2023-08-24T03:55:01;13.73;;;9.00;;
67585;SDS011;55785;47.946;20.540;2023-08-24T03:57:27;16.58;;;9.00;;
67585;SDS011;55785;47.946;20.540;2023-08-24T03:59:52;15.38;;;9.15;;
67585;SDS011;55785;47.946;20.540;2023-08-24T04:02:17;14.98;;;9.25;;
67585;SDS011;55785;47.946;20.540;2023-08-24T04:04:43;14.05;;;9.13;;
67585;SDS011;55785;47.946;20.540;2023-08-24T04:07:08;12.23;;;9.80;;
67585;SDS011;55785;47.946;20.540;2023-08-24T04:09:33;13.45;;;9.10;;
67585;SDS011;55785;47.946;20.540;2023-08-24T04:11:58;14.88;;;9.65;;
67585;SDS011;55785;47.946;20.540;2023-08-24T04:14:23;14.15;;;9.80;;
67585;SDS011;55785;47.946;20.540;2023-08-24T04:16:49;16.52;;;9.52;;
67585;SDS011;55785;47.946;20.540;2023-08-24T04:19:14;13.90;;;9.65;;
67585;SDS011;55785;47.946;20.540;2023-08-24T04:21:39;12.25;;;9.02;;
67585;SDS011;55785;47.946;20.540;2023-08-24T04:24:04;15.32;;;9.70;;
67585;SDS011;55785;47.946;20.540;2023-08-24T04:26:30;15.15;;;9.15;;
67585;SDS011;55785;47.946;20.540;2023-08-24T04:28:55;12.25;;;8.40;;
67585;SDS011;55785;47.946;20.540;2023-08-24T04:31:20;13.07;;;9.32;;
67585;SDS011;55785;47.946;20.540;2023-08-24T04:33:45;14.95;;;10.02;;
67585;SDS011;55785;47.946;20.540;2023-08-24T04:36:11;15.73;;;10.00;;
67585;SDS011;55785;47.946;20.540;2023-08-24T04:38:36;13.70;;;9.43;;
67585;SDS011;55785;47.946;20.540;2023-08-24T04:41:02;17.75;;;9.82;;
67585;SDS011;55785;47.946;20.540;2023-08-24T04:43:27;13.20;;;8.98;;
67585;SDS011;55785;47.946;20.540;2023-08-24T04:45:53;11.85;;;8.52;;
67585;SDS011;55785;47.946;20.540;2023-08-24T04:48:20;14.25;;;8.63;;
67585;SDS011;55785;47.946;20.540;2023-08-24T04:50:46;13.70;;;8.82;;
67585;SDS011;55785;47.946;20.540;2023-08-24T04:53:12;11.00;;;8.73;;
67585;SDS011;55785;47.946;20.540;2023-08-24T04:55:38;13.23;;;9.68;;
67585;SDS011;55785;47.946;20.540;2023-08-24T04:58:03;16.38;;;10.00;;
67585;SDS011;55785;47.946;20.540;2023-08-24T05:00:28;12.38;;;9.32;;
67585;SDS011;55785;47.946;20.540;2023-08-24T05:02:53;15.32;;;10.23;;
67585;SDS011;55785;47.946;20.540;2023-08-24T05:05:18;16.33;;;9.95;;
67585;SDS011;55785;47.946;20.540;2023-08-24T05:07:44;16.67;;;9.95;;
67585;SDS011;55785;47.946;20.540;2023-08-24T05:10:09;18.40;;;10.27;;
67585;SDS011;55785;47.946;20.540;2023-08-24T05:12:34;14.95;;;9.85;;
67585;SDS011;55785;47.946;20.540;2023-08-24T05:14:59;15.98;;;10.63;;
67585;SDS011;55785;47.946;20.540;2023-08-24T05:17:25;15.23;;;9.82;;
67585;SDS011;55785;47.946;20.540;2023-08-24T05:19:56;13.23;;;9.85;;
67585;SDS011;55785;47.946;20.540;2023-08-24T05:22:21;12.73;;;10.50;;
67585;SDS011;55785;47.946;20.540;2023-08-24T05:24:46;13.15;;;10.00;;
67585;SDS011;55785;47.946;20.540;2023-08-24T05:27:12;15.50;;;11.20;;
67585;SDS011;55785;47.946;20.540;2023-08-24T05:29:37;14.02;;;9.85;;
67585;SDS011;55785;47.946;20.540;2023-08-24T05:32:02;13.63;;;9.40;;
67585;SDS011;55785;47.946;20.540;2023-08-24T05:34:27;13.70;;;9.70;;
67585;SDS011;55785;47.946;20.540;2023-08-24T05:36:53;13.18;;;9.25;;
67585;SDS011;55785;47.946;20.540;2023-08-24T05:39:18;11.60;;;9.13;;
67585;SDS011;55785;47.946;20.540;2023-08-24T05:41:43;13.82;;;9.15;;
67585;SDS011;55785;47.946;20.540;2023-08-24T05:44:08;11.95;;;9.15;;
67585;SDS011;55785;47.946;20.540;2023-08-24T05:46:33;13.38;;;9.18;;
67585;SDS011;55785;47.946;20.540;2023-08-24T05:48:59;14.40;;;9.00;;
67585;SDS011;55785;47.946;20.540;2023-08-24T05:51:24;13.43;;;8.85;;
67585;SDS011;55785;47.946;20.540;2023-08-24T05:53:49;14.23;;;8.82;;
67585;SDS011;55785;47.946;20.540;2023-08-24T05:56:14;13.10;;;8.65;;
67585;SDS011;55785;47.946;20.540;2023-08-24T05:58:39;13.57;;;8.23;;
67585;SDS011;55785;47.946;20.540;2023-08-24T06:01:05;12.02;;;8.10;;
67585;SDS011;55785;47.946;20.540;2023-08-24T06:03:30;11.95;;;9.00;;
67585;SDS011;55785;47.946;20.540;2023-08-24T06:06:00;12.20;;;8.93;;
67585;SDS011;55785;47.946;20.540;2023-08-24T06:08:25;10.45;;;8.63;;
67585;SDS011;55785;47.946;20.540;2023-08-24T06:10:50;12.18;;;8.55;;
67585;SDS011;55785;47.946;20.540;2023-08-24T06:13:16;12.30;;;8.45;;
67585;SDS011;55785;47.946;20.540;2023-08-24T06:15:41;10.23;;;7.35;;
67585;SDS011;55785;47.946;20.540;2023-08-24T06:18:06;13.30;;;7.47;;
67585;SDS011;55785;47.946;20.540;2023-08-24T06:20:32;11.93;;;7.90;;
67585;SDS011;55785;47.946;20.540;2023-08-24T06:22:57;10.27;;;7.25;;
67585;SDS011;55785;47.946;20.540;2023-08-24T06:25:22;10.07;;;6.93;;
67585;SDS011;55785;47.946;20.540;2023-08-24T06:27:47;12.73;;;7.53;;
67585;SDS011;55785;47.946;20.540;2023-08-24T06:30:12;11.02;;;6.65;;
67585;SDS011;55785;47.946;20.540;2023-08-24T06:32:38;9.68;;;6.90;;
67585;SDS011;55785;47.946;20.540;2023-08-24T06:35:03;10.55;;;7.30;;
67585;SDS011;55785;47.946;20.540;2023-08-24T06:37:29;9.77;;;7.22;;
67585;SDS011;55785;47.946;20.540;2023-08-24T06:39:54;9.07;;;7.10;;
67585;SDS011;55785;47.946;20.540;2023-08-24T06:42:19;12.27;;;8.00;;
67585;SDS011;55785;47.946;20.540;2023-08-24T06:44:44;10.40;;;7.40;;
67585;SDS011;55785;47.946;20.540;2023-08-24T06:47:09;9.60;;;7.05;;
67585;SDS011;55785;47.946;20.540;2023-08-24T06:49:35;11.43;;;7.25;;
67585;SDS011;55785;47.946;20.540;2023-08-24T06:52:01;9.18;;;6.78;;
67585;SDS011;55785;47.946;20.540;2023-08-24T06:54:26;9.55;;;7.15;;
67585;SDS011;55785;47.946;20.540;2023-08-24T06:56:51;8.82;;;7.32;;
67585;SDS011;55785;47.946;20.540;2023-08-24T06:59:17;11.05;;;7.18;;
67585;SDS011;55785;47.946;20.540;2023-08-24T07:01:42;9.55;;;6.78;;
67585;SDS011;55785;47.946;20.540;2023-08-24T07:04:07;9.82;;;6.85;;
67585;SDS011;55785;47.946;20.540;2023-08-24T07:06:35;11.07;;;7.10;;
67585;SDS011;55785;47.946;20.540;2023-08-24T07:09:00;14.57;;;7.28;;
67585;SDS011;55785;47.946;20.540;2023-08-24T07:11:25;10.75;;;7.35;;
67585;SDS011;55785;47.946;20.540;2023-08-24T07:13:50;11.35;;;7.00;;
67585;SDS011;55785;47.946;20.540;2023-08-24T07:16:16;9.40;;;6.45;;
67585;SDS011;55785;47.946;20.540;2023-08-24T07:18:41;9.68;;;6.72;;
67585;SDS011;55785;47.946;20.540;2023-08-24T07:21:06;9.20;;;6.72;;
67585;SDS011;55785;47.946;20.540;2023-08-24T07:23:31;8.35;;;6.18;;
67585;SDS011;55785;47.946;20.540;2023-08-24T07:25:57;7.82;;;4.95;;
67585;SDS011;55785;47.946;20.540;2023-08-24T07:28:22;7.07;;;5.35;;
67585;SDS011;55785;47.946;20.540;2023-08-24T07:30:47;11.02;;;5.57;;
67585;SDS011;55785;47.946;20.540;2023-08-24T07:33:12;6.90;;;4.97;;
67585;SDS011;55785;47.946;20.540;2023-08-24T07:35:37;8.18;;;5.40;;
67585;SDS011;55785;47.946;20.540;2023-08-24T07:38:03;6.45;;;5.00;;
67585;SDS011;55785;47.946;20.540;2023-08-24T07:40:28;8.30;;;5.63;;
67585;SDS011;55785;47.946;20.540;2023-08-24T07:42:53;10.00;;;5.35;;
67585;SDS011;55785;47.946;20.540;2023-08-24T07:45:18;8.43;;;5.57;;
67585;SDS011;55785;47.946;20.540;2023-08-24T07:47:44;8.10;;;5.03;;
67585;SDS011;55785;47.946;20.540;2023-08-24T07:50:09;6.93;;;5.53;;
67585;SDS011;55785;47.946;20.540;2023-08-24T07:52:35;8.18;;;5.90;;
67585;SDS011;55785;47.946;20.540;2023-08-24T07:55:01;6.78;;;5.47;;
67585;SDS011;55785;47.946;20.540;2023-08-24T07:57:26;6.90;;;4.80;;
67585;SDS011;55785;47.946;20.540;2023-08-24T07:59:51;7.97;;;5.45;;
67585;SDS011;55785;47.946;20.540;2023-08-24T08:02:16;7.97;;;5.30;;
67585;SDS011;55785;47.946;20.540;2023-08-24T08:04:42;7.90;;;5.50;;
67585;SDS011;55785;47.946;20.540;2023-08-24T08:07:07;7.95;;;5.38;;
67585;SDS011;55785;47.946;20.540;2023-08-24T08:09:32;6.22;;;5.05;;
67585;SDS011;55785;47.946;20.540;2023-08-24T08:11:57;6.78;;;4.70;;
67585;SDS011;55785;47.946;20.540;2023-08-24T08:14:22;6.22;;;4.68;;
67585;SDS011;55785;47.946;20.540;2023-08-24T08:16:48;5.57;;;4.20;;
67585;SDS011;55785;47.946;20.540;2023-08-24T08:19:13;6.82;;;4.10;;
67585;SDS011;55785;47.946;20.540;2023-08-24T08:21:38;5.68;;;4.35;;
67585;SDS011;55785;47.946;20.540;2023-08-24T08:24:03;7.07;;;4.22;;
67585;SDS011;55785;47.946;20.540;2023-08-24T08:26:28;5.55;;;4.25;;
67585;SDS011;55785;47.946;20.540;2023-08-24T08:28:54;5.70;;;4.30;;
67585;SDS011;55785;47.946;20.540;2023-08-24T08:31:19;8.05;;;4.35;;
67585;SDS011;55785;47.946;20.540;2023-08-24T08:33:44;5.28;;;4.13;;
67585;SDS011;55785;47.946;20.540;2023-08-24T08:36:09;5.45;;;3.95;;
67585;SDS011;55785;47.946;20.540;2023-08-24T08:38:34;6.93;;;4.00;;
67585;SDS011;55785;47.946;20.540;2023-08-24T08:41:03;5.50;;;3.80;;
67585;SDS011;55785;47.946;20.540;2023-08-24T08:43:29;6.05;;;4.10;;
67585;SDS011;55785;47.946;20.540;2023-08-24T08:45:54;5.32;;;3.70;;
67585;SDS011;55785;47.946;20.540;2023-08-24T08:48:20;7.75;;;3.95;;
67585;SDS011;55785;47.946;20.540;2023-08-24T08:50:47;8.30;;;4.18;;
67585;SDS011;55785;47.946;20.540;2023-08-24T08:53:13;6.72;;;3.90;;
67585;SDS011;55785;47.946;20.540;2023-08-24T08:55:38;5.95;;;3.70;;
67585;SDS011;55785;47.946;20.540;2023-08-24T08:58:04;5.72;;;3.90;;
67585;SDS011;55785;47.946;20.540;2023-08-24T09:00:29;8.00;;;4.80;;
67585;SDS011;55785;47.946;20.540;2023-08-24T09:02:55;8.23;;;4.75;;
67585;SDS011;55785;47.946;20.540;2023-08-24T09:05:21;5.68;;;4.20;;
67585;SDS011;55785;47.946;20.540;2023-08-24T09:07:47;6.28;;;4.47;;
67585;SDS011;55785;47.946;20.540;2023-08-24T09:10:12;6.22;;;3.75;;
67585;SDS011;55785;47.946;20.540;2023-08-24T09:12:38;4.43;;;3.65;;
67585;SDS011;55785;47.946;20.540;2023-08-24T09:15:03;5.20;;;4.03;;
67585;SDS011;55785;47.946;20.540;2023-08-24T09:17:29;6.50;;;4.28;;
67585;SDS011;55785;47.946;20.540;2023-08-24T09:19:58;5.93;;;3.88;;
67585;SDS011;55785;47.946;20.540;2023-08-24T09:22:23;6.60;;;4.20;;
67585;SDS011;55785;47.946;20.540;2023-08-24T09:24:48;5.65;;;4.07;;
67585;SDS011;55785;47.946;20.540;2023-08-24T09:27:14;5.00;;;4.30;;
67585;SDS011;55785;47.946;20.540;2023-08-24T09:29:40;5.28;;;4.00;;
67585;SDS011;55785;47.946;20.540;2023-08-24T09:32:07;8.23;;;3.80;;
67585;SDS011;55785;47.946;20.540;2023-08-24T09:34:33;6.60;;;4.47;;
67585;SDS011;55785;47.946;20.540;2023-08-24T09:36:58;5.28;;;3.85;;
67585;SDS011;55785;47.946;20.540;2023-08-24T09:39:23;6.50;;;3.95;;
67585;SDS011;55785;47.946;20.540;2023-08-24T09:41:49;6.32;;;4.30;;
67585;SDS011;55785;47.946;20.540;2023-08-24T09:44:14;8.48;;;4.38;;
67585;SDS011;55785;47.946;20.540;2023-08-24T09:46:39;6.93;;;3.97;;
67585;SDS011;55785;47.946;20.540;2023-08-24T09:49:05;5.07;;;3.83;;
67585;SDS011;55785;47.946;20.540;2023-08-24T09:51:31;6.80;;;3.92;;
67585;SDS011;55785;47.946;20.540;2023-08-24T09:53:57;5.50;;;4.05;;
67585;SDS011;55785;47.946;20.540;2023-08-24T09:56:23;7.28;;;4.28;;
67585;SDS011;55785;47.946;20.540;2023-08-24T09:58:49;4.32;;;3.72;;
67585;SDS011;55785;47.946;20.540;2023-08-24T10:01:15;4.28;;;3.75;;
67585;SDS011;55785;47.946;20.540;2023-08-24T10:03:42;7.03;;;3.67;;
67585;SDS011;55785;47.946;20.540;2023-08-24T10:06:07;7.95;;;3.97;;
67585;SDS011;55785;47.946;20.540;2023-08-24T10:08:34;7.45;;;4.07;;
67585;SDS011;55785;47.946;20.540;2023-08-24T10:11:00;5.47;;;3.88;;
67585;SDS011;55785;47.946;20.540;2023-08-24T10:15:57;6.40;;;4.40;;
67585;SDS011;55785;47.946;20.540;2023-08-24T10:18:22;4.60;;;3.70;;
67585;SDS011;55785;47.946;20.540;2023-08-24T10:20:48;5.28;;;3.80;;
67585;SDS011;55785;47.946;20.540;2023-08-24T10:23:14;6.82;;;4.55;;
67585;SDS011;55785;47.946;20.540;2023-08-24T10:25:39;7.20;;;4.22;;
67585;SDS011;55785;47.946;20.540;2023-08-24T10:28:05;6.70;;;4.13;;
67585;SDS011;55785;47.946;20.540;2023-08-24T10:30:30;6.28;;;4.35;;
67585;SDS011;55785;47.946;20.540;2023-08-24T10:32:56;5.55;;;4.50;;
67585;SDS011;55785;47.946;20.540;2023-08-24T10:35:22;5.28;;;4.30;;
67585;SDS011;55785;47.946;20.540;2023-08-24T10:37:47;5.25;;;3.92;;
67585;SDS011;55785;47.946;20.540;2023-08-24T10:40:13;4.85;;;3.75;;
67585;SDS011;55785;47.946;20.540;2023-08-24T10:42:44;5.50;;;3.95;;
67585;SDS011;55785;47.946;20.540;2023-08-24T10:45:11;6.47;;;4.40;;
67585;SDS011;55785;47.946;20.540;2023-08-24T10:47:43;6.60;;;4.18;;
67585;SDS011;55785;47.946;20.540;2023-08-24T10:50:09;6.43;;;4.53;;
67585;SDS011;55785;47.946;20.540;2023-08-24T10:52:37;4.97;;;4.10;;
67585;SDS011;55785;47.946;20.540;2023-08-24T10:55:03;5.70;;;4.45;;
67585;SDS011;55785;47.946;20.540;2023-08-24T10:57:38;6.32;;;4.25;;
67585;SDS011;55785;47.946;20.540;2023-08-24T11:02:45;6.85;;;4.47;;
67585;SDS011;55785;47.946;20.540;2023-08-24T11:07:48;5.45;;;4.38;;
67585;SDS011;55785;47.946;20.540;2023-08-24T11:10:13;6.85;;;4.90;;
67585;SDS011;55785;47.946;20.540;2023-08-24T11:20:47;6.30;;;4.73;;
67585;SDS011;55785;47.946;20.540;2023-08-24T11:23:12;6.18;;;4.40;;
67585;SDS011;55785;47.946;20.540;2023-08-24T11:25:38;7.03;;;4.68;;
67585;SDS011;55785;47.946;20.540;2023-08-24T11:28:03;8.30;;;4.43;;
67585;SDS011;55785;47.946;20.540;2023-08-24T11:30:29;5.97;;;4.30;;
67585;SDS011;55785;47.946;20.540;2023-08-24T11:32:55;6.82;;;4.60;;
67585;SDS011;55785;47.946;20.540;2023-08-24T11:35:20;6.65;;;4.30;;
67585;SDS011;55785;47.946;20.540;2023-08-24T11:37:50;6.63;;;4.53;;
67585;SDS011;55785;47.946;20.540;2023-08-24T11:40:18;5.38;;;4.50;;
67585;SDS011;55785;47.946;20.540;2023-08-24T11:42:44;5.90;;;4.72;;
67585;SDS011;55785;47.946;20.540;2023-08-24T11:45:12;5.97;;;4.00;;
67585;SDS011;55785;47.946;20.540;2023-08-24T11:47:38;6.25;;;4.18;;
67585;SDS011;55785;47.946;20.540;2023-08-24T11:50:03;6.45;;;4.57;;
67585;SDS011;55785;47.946;20.540;2023-08-24T11:52:29;6.32;;;4.55;;
67585;SDS011;55785;47.946;20.540;2023-08-24T11:54:54;5.90;;;4.70;;
67585;SDS011;55785;47.946;20.540;2023-08-24T11:57:19;5.30;;;4.38;;
67585;SDS011;55785;47.946;20.540;2023-08-24T11:59:44;5.68;;;4.40;;
67585;SDS011;55785;47.946;20.540;2023-08-24T12:02:10;7.72;;;4.50;;
67585;SDS011;55785;47.946;20.540;2023-08-24T12:04:39;7.13;;;4.65;;
67585;SDS011;55785;47.946;20.540;2023-08-24T12:07:13;6.38;;;4.45;;
67585;SDS011;55785;47.946;20.540;2023-08-24T12:09:41;4.78;;;4.20;;
67585;SDS011;55785;47.946;20.540;2023-08-24T12:12:13;5.50;;;4.22;;
67585;SDS011;55785;47.946;20.540;2023-08-24T12:14:41;5.05;;;4.30;;
67585;SDS011;55785;47.946;20.540;2023-08-24T12:17:07;5.30;;;4.38;;
67585;SDS011;55785;47.946;20.540;2023-08-24T12:19:32;6.10;;;4.30;;
67585;SDS011;55785;47.946;20.540;2023-08-24T12:21:57;6.45;;;4.45;;
67585;SDS011;55785;47.946;20.540;2023-08-24T12:24:22;6.80;;;4.50;;
67585;SDS011;55785;47.946;20.540;2023-08-24T12:26:54;7.85;;;4.28;;
67585;SDS011;55785;47.946;20.540;2023-08-24T12:29:20;6.00;;;4.10;;
67585;SDS011;55785;47.946;20.540;2023-08-24T12:31:45;5.13;;;4.07;;
67585;SDS011;55785;47.946;20.540;2023-08-24T12:34:10;6.57;;;3.97;;
67585;SDS011;55785;47.946;20.540;2023-08-24T12:36:36;5.05;;;4.20;;
67585;SDS011;55785;47.946;20.540;2023-08-24T12:39:02;6.75;;;4.38;;
67585;SDS011;55785;47.946;20.540;2023-08-24T12:41:27;6.03;;;4.00;;
67585;SDS011;55785;47.946;20.540;2023-08-24T12:43:52;4.90;;;4.20;;
67585;SDS011;55785;47.946;20.540;2023-08-24T12:46:18;4.50;;;3.80;;
67585;SDS011;55785;47.946;20.540;2023-08-24T12:48:43;5.63;;;4.22;;
67585;SDS011;55785;47.946;20.540;2023-08-24T12:51:08;5.57;;;4.20;;
67585;SDS011;55785;47.946;20.540;2023-08-24T12:53:33;4.72;;;3.83;;
67585;SDS011;55785;47.946;20.540;2023-08-24T12:55:58;4.90;;;3.93;;
67585;SDS011;55785;47.946;20.540;2023-08-24T12:58:24;5.33;;;4.00;;
67585;SDS011;55785;47.946;20.540;2023-08-24T13:00:49;5.70;;;4.33;;
67585;SDS011;55785;47.946;20.540;2023-08-24T13:03:14;5.73;;;3.83;;
67585;SDS011;55785;47.946;20.540;2023-08-24T13:05:39;5.25;;;4.20;;
67585;SDS011;55785;47.946;20.540;2023-08-24T13:08:05;7.25;;;3.97;;
67585;SDS011;55785;47.946;20.540;2023-08-24T13:10:30;5.93;;;4.03;;
67585;SDS011;55785;47.946;20.540;2023-08-24T13:12:55;4.85;;;4.03;;
67585;SDS011;55785;47.946;20.540;2023-08-24T13:15:20;5.63;;;4.30;;
67585;SDS011;55785;47.946;20.540;2023-08-24T13:17:46;5.57;;;4.40;;
67585;SDS011;55785;47.946;20.540;2023-08-24T13:20:11;6.28;;;4.10;;
67585;SDS011;55785;47.946;20.540;2023-08-24T13:22:36;6.28;;;4.30;;
67585;SDS011;55785;47.946;20.540;2023-08-24T13:25:01;6.00;;;4.03;;
67585;SDS011;55785;47.946;20.540;2023-08-24T13:27:26;6.35;;;4.25;;
67585;SDS011;55785;47.946;20.540;2023-08-24T13:29:52;5.80;;;4.75;;
67585;SDS011;55785;47.946;20.540;2023-08-24T13:32:17;5.10;;;4.20;;
67585;SDS011;55785;47.946;20.540;2023-08-24T13:34:42;5.68;;;4.15;;
67585;SDS011;55785;47.946;20.540;2023-08-24T13:37:07;6.50;;;4.40;;
67585;SDS011;55785;47.946;20.540;2023-08-24T13:39:32;6.43;;;4.50;;
67585;SDS011;55785;47.946;20.540;2023-08-24T13:41:58;7.47;;;4.43;;
67585;SDS011;55785;47.946;20.540;2023-08-24T13:44:23;7.38;;;4.25;;
67585;SDS011;55785;47.946;20.540;2023-08-24T13:46:49;6.00;;;4.33;;
67585;SDS011;55785;47.946;20.540;2023-08-24T13:49:14;6.53;;;4.15;;
67585;SDS011;55785;47.946;20.540;2023-08-24T13:51:39;6.50;;;4.30;;
67585;SDS011;55785;47.946;20.540;2023-08-24T13:54:26;6.25;;;4.15;;
67585;SDS011;55785;47.946;20.540;2023-08-24T13:56:50;5.72;;;4.20;;
67585;SDS011;55785;47.946;20.540;2023-08-24T13:59:15;5.83;;;4.27;;
67585;SDS011;55785;47.946;20.540;2023-08-24T14:01:41;5.57;;;4.15;;
67585;SDS011;55785;47.946;20.540;2023-08-24T14:04:06;5.07;;;4.22;;
67585;SDS011;55785;47.946;20.540;2023-08-24T14:06:32;6.20;;;4.18;;
67585;SDS011;55785;47.946;20.540;2023-08-24T14:08:57;5.82;;;4.40;;
67585;SDS011;55785;47.946;20.540;2023-08-24T14:11:23;8.50;;;4.30;;
67585;SDS011;55785;47.946;20.540;2023-08-24T14:13:48;4.93;;;4.22;;
67585;SDS011;55785;47.946;20.540;2023-08-24T14:16:13;6.00;;;4.47;;
67585;SDS011;55785;47.946;20.540;2023-08-24T14:18:38;5.73;;;4.00;;
67585;SDS011;55785;47.946;20.540;2023-08-24T14:21:03;5.43;;;4.20;;
67585;SDS011;55785;47.946;20.540;2023-08-24T14:23:29;5.32;;;4.10;;
67585;SDS011;55785;47.946;20.540;2023-08-24T14:25:54;4.63;;;4.13;;
67585;SDS011;55785;47.946;20.540;2023-08-24T14:28:20;5.10;;;4.15;;
67585;SDS011;55785;47.946;20.540;2023-08-24T14:30:45;4.65;;;4.10;;
67585;SDS011;55785;47.946;20.540;2023-08-24T14:33:10;5.87;;;4.17;;
67585;SDS011;55785;47.946;20.540;2023-08-24T14:35:36;5.07;;;4.03;;
67585;SDS011;55785;47.946;20.540;2023-08-24T14:38:01;7.93;;;4.37;;
67585;SDS011;55785;47.946;20.540;2023-08-24T14:40:26;5.20;;;3.97;;